createdAt,value
2019-03-01T00:00:51.836Z,93.79
2019-03-01T00:01:51.884Z,94.08
2019-03-01T00:02:51.911Z,93.98
2019-03-01T00:03:51.956Z,94.93
2019-03-01T00:04:52.002Z,95.79
2019-03-01T00:05:52.141Z,96.17
2019-03-01T00:06:52.103Z,96.12
2019-03-01T00:07:52.144Z,95.12
2019-03-01T00:08:52.191Z,95.12
2019-03-01T00:09:52.239Z,94.46
2019-03-01T00:10:52.316Z,94.03
2019-03-01T00:11:52.328Z,93.84
2019-03-01T00:12:52.427Z,93.74
2019-03-01T00:13:52.421Z,94.60
2019-03-01T00:14:52.474Z,94.22
2019-03-01T00:15:52.535Z,94.03
2019-03-01T00:16:52.558Z,94.37
2019-03-01T00:17:52.634Z,94.65
2019-03-01T00:18:52.661Z,94.08
2019-03-01T00:19:52.700Z,94.42
2019-03-01T00:20:52.747Z,94.60
2019-03-01T00:21:52.829Z,93.79
2019-03-01T00:22:52.845Z,92.70
2019-03-01T00:23:52.883Z,93.98
2019-03-01T00:24:52.942Z,93.51
2019-03-01T00:25:52.981Z,93.70
2019-03-01T00:26:53.085Z,93.13
2019-03-01T00:27:53.085Z,93.03
2019-03-01T00:28:53.128Z,93.70
2019-03-01T00:29:53.173Z,92.65
2019-03-01T00:30:53.206Z,92.08
2019-03-01T00:31:53.253Z,92.84
2019-03-01T00:32:53.326Z,93.03
2019-03-01T00:33:53.347Z,93.51
2019-03-01T00:34:53.402Z,93.51
2019-03-01T00:35:53.454Z,93.70
2019-03-01T00:36:53.502Z,93.79
2019-03-01T00:37:53.558Z,93.70
2019-03-01T00:38:53.585Z,92.84
2019-03-01T00:39:53.626Z,92.27
2019-03-01T00:40:53.671Z,92.18
2019-03-01T00:41:53.728Z,92.55
2019-03-01T00:42:53.786Z,92.36
2019-03-01T00:43:53.810Z,92.55
2019-03-01T00:44:53.857Z,93.03
2019-03-01T00:45:53.903Z,92.65
2019-03-01T00:46:53.948Z,92.65
2019-03-01T00:47:54.025Z,92.74
2019-03-01T00:48:54.039Z,92.55
2019-03-01T00:49:54.086Z,91.99
2019-03-01T00:50:54.132Z,90.65
2019-03-01T00:51:54.177Z,90.84
2019-03-01T00:52:54.251Z,92.08
2019-03-01T00:53:54.401Z,92.74
2019-03-01T00:54:54.317Z,92.74
2019-03-01T00:55:54.366Z,92.08
2019-03-01T00:56:54.409Z,92.84
2019-03-01T00:57:54.485Z,92.94
2019-03-01T00:58:54.523Z,92.74
2019-03-01T00:59:54.549Z,92.84
2019-03-01T01:00:54.665Z,91.84
2019-03-01T01:01:54.646Z,92.08
2019-03-01T01:02:54.688Z,91.79
2019-03-01T01:03:54.756Z,91.99
2019-03-01T01:04:54.780Z,92.74
2019-03-01T01:05:54.825Z,92.36
2019-03-01T01:06:54.870Z,92.84
2019-03-01T01:07:54.924Z,93.13
2019-03-01T01:08:54.990Z,93.70
2019-03-01T01:09:55.015Z,93.32
2019-03-01T01:10:55.054Z,93.89
2019-03-01T01:11:55.122Z,93.79
2019-03-01T01:12:55.149Z,92.99
2019-03-01T01:13:55.216Z,93.65
2019-03-01T01:14:55.263Z,93.74
2019-03-01T01:15:55.291Z,94.42
2019-03-01T01:16:55.339Z,93.84
2019-03-01T01:17:55.383Z,91.84
2019-03-01T01:18:55.449Z,91.31
2019-03-01T01:19:55.479Z,91.89
2019-03-01T01:20:55.521Z,92.74
2019-03-01T01:21:55.565Z,91.51
2019-03-01T01:22:55.617Z,91.56
2019-03-01T01:23:55.692Z,91.41
2019-03-01T01:24:55.704Z,91.60
2019-03-01T01:25:55.752Z,91.13
2019-03-01T01:26:55.795Z,91.03
2019-03-01T01:27:55.867Z,90.51
2019-03-01T01:28:55.911Z,91.13
2019-03-01T01:29:55.954Z,91.31
2019-03-01T01:30:55.994Z,91.03
2019-03-01T01:31:56.032Z,91.51
2019-03-01T01:32:56.107Z,90.08
2019-03-01T01:33:56.123Z,89.41
2019-03-01T01:34:56.214Z,89.41
2019-03-01T01:35:56.215Z,88.65
2019-03-01T01:36:56.261Z,88.93
2019-03-01T01:37:56.305Z,89.61
2019-03-01T01:38:56.351Z,88.84
2019-03-01T01:39:56.440Z,88.18
2019-03-01T01:40:56.446Z,87.98
2019-03-01T01:41:56.487Z,87.41
2019-03-01T01:42:56.534Z,87.13
2019-03-01T01:43:56.583Z,87.46
2019-03-01T01:44:56.672Z,86.94
2019-03-01T01:45:56.704Z,86.98
2019-03-01T01:46:56.725Z,87.17
2019-03-01T01:47:56.768Z,87.46
2019-03-01T01:48:56.815Z,87.27
2019-03-01T01:49:56.907Z,86.22
2019-03-01T01:50:56.909Z,87.17
2019-03-01T01:51:56.952Z,86.88
2019-03-01T01:52:56.997Z,87.27
2019-03-01T01:53:57.042Z,87.36
2019-03-01T01:54:57.113Z,87.07
2019-03-01T01:55:57.137Z,86.98
2019-03-01T01:56:57.181Z,87.84
2019-03-01T01:57:57.230Z,87.46
2019-03-01T01:58:57.275Z,87.93
2019-03-01T01:59:57.363Z,88.31
2019-03-01T02:00:57.366Z,88.27
2019-03-01T02:01:57.422Z,88.08
2019-03-01T02:02:57.457Z,88.46
2019-03-01T02:03:57.516Z,88.31
2019-03-01T02:04:57.570Z,88.46
2019-03-01T02:05:57.617Z,87.46
2019-03-01T02:06:57.644Z,88.12
2019-03-01T02:07:57.687Z,88.56
2019-03-01T02:08:57.738Z,88.31
2019-03-01T02:09:57.791Z,88.41
2019-03-01T02:10:57.856Z,88.79
2019-03-01T02:11:57.878Z,88.22
2019-03-01T02:12:57.922Z,88.22
2019-03-01T02:13:57.996Z,88.60
2019-03-01T02:14:58.019Z,88.75
2019-03-01T02:15:58.096Z,89.65
2019-03-01T02:16:58.111Z,89.89
2019-03-01T02:17:58.152Z,89.70
2019-03-01T02:18:58.199Z,89.98
2019-03-01T02:19:58.248Z,89.79
2019-03-01T02:20:58.320Z,89.98
2019-03-01T02:21:58.340Z,89.79
2019-03-01T02:22:58.386Z,89.94
2019-03-01T02:23:58.429Z,89.22
2019-03-01T02:24:58.479Z,89.65
2019-03-01T02:25:58.546Z,90.08
2019-03-01T02:26:58.569Z,89.65
2019-03-01T02:27:58.620Z,89.84
2019-03-01T02:28:58.660Z,89.84
2019-03-01T02:29:58.708Z,89.51
2019-03-01T02:30:58.779Z,89.32
2019-03-01T02:31:58.852Z,89.46
2019-03-01T02:32:58.846Z,89.07
2019-03-01T02:33:58.913Z,89.46
2019-03-01T02:34:59.051Z,90.03
2019-03-01T02:35:59.003Z,89.13
2019-03-01T02:36:59.049Z,89.98
2019-03-01T02:37:59.085Z,89.89
2019-03-01T02:38:59.122Z,89.89
2019-03-01T02:39:59.165Z,89.84
2019-03-01T02:40:59.212Z,89.70
2019-03-01T02:41:59.278Z,90.50
2019-03-01T02:42:59.310Z,90.65
2019-03-01T02:43:59.350Z,90.17
2019-03-01T02:44:59.408Z,91.13
2019-03-01T02:45:59.445Z,91.31
2019-03-01T02:46:59.533Z,90.84
2019-03-01T02:47:59.539Z,90.94
2019-03-01T02:48:59.597Z,91.41
2019-03-01T02:49:59.628Z,91.31
2019-03-01T02:50:59.674Z,91.03
2019-03-01T02:51:59.755Z,91.13
2019-03-01T02:52:59.767Z,91.03
2019-03-01T02:53:59.819Z,91.13
2019-03-01T02:54:59.858Z,91.70
2019-03-01T02:55:59.907Z,90.17
2019-03-01T02:56:59.989Z,90.46
2019-03-01T02:58:00.082Z,90.75
2019-03-01T02:59:00.054Z,90.75
2019-03-01T03:00:00.262Z,90.56
2019-03-01T03:01:00.142Z,91.51
2019-03-01T03:02:00.213Z,91.13
2019-03-01T03:03:00.255Z,90.94
2019-03-01T03:04:00.274Z,91.13
2019-03-01T03:05:00.517Z,91.89
2019-03-01T03:06:00.379Z,91.99
2019-03-01T03:07:00.413Z,91.31
2019-03-01T03:08:00.480Z,90.75
2019-03-01T03:09:00.522Z,90.56
2019-03-01T03:10:00.565Z,90.56
2019-03-01T03:11:00.613Z,90.65
2019-03-01T03:12:00.653Z,90.08
2019-03-01T03:13:00.712Z,90.08
2019-03-01T03:14:00.742Z,91.13
2019-03-01T03:15:00.779Z,91.13
2019-03-01T03:16:00.841Z,90.65
2019-03-01T03:17:00.922Z,90.27
2019-03-01T03:18:00.957Z,89.65
2019-03-01T03:19:00.967Z,89.65
2019-03-01T03:20:01.019Z,89.55
2019-03-01T03:21:01.061Z,89.65
2019-03-01T03:22:01.114Z,89.55
2019-03-01T03:23:01.168Z,89.46
2019-03-01T03:24:01.218Z,89.84
2019-03-01T03:25:01.309Z,90.03
2019-03-01T03:26:01.318Z,90.65
2019-03-01T03:27:01.337Z,90.56
2019-03-01T03:28:01.393Z,90.17
2019-03-01T03:29:01.449Z,91.31
2019-03-01T03:30:01.482Z,91.31
2019-03-01T03:31:01.540Z,91.51
2019-03-01T03:32:01.569Z,91.51
2019-03-01T03:33:01.620Z,90.94
2019-03-01T03:34:01.686Z,91.13
2019-03-01T03:35:01.780Z,91.60
2019-03-01T03:36:01.760Z,91.22
2019-03-01T03:37:01.817Z,90.65
2019-03-01T03:38:01.852Z,90.75
2019-03-01T03:39:01.916Z,90.84
2019-03-01T03:40:01.939Z,89.98
2019-03-01T03:41:01.991Z,89.70
2019-03-01T03:42:02.038Z,89.70
2019-03-01T03:43:02.075Z,89.07
2019-03-01T03:44:02.139Z,88.60
2019-03-01T03:45:02.179Z,89.51
2019-03-01T03:46:02.222Z,89.89
2019-03-01T03:47:02.267Z,90.94
2019-03-01T03:48:02.307Z,91.70
2019-03-01T03:49:02.373Z,91.99
2019-03-01T03:50:02.423Z,92.65
2019-03-01T03:51:02.444Z,92.27
2019-03-01T03:52:02.490Z,92.74
2019-03-01T03:53:02.548Z,92.94
2019-03-01T03:54:02.609Z,92.55
2019-03-01T03:55:02.647Z,92.55
2019-03-01T03:56:02.675Z,92.74
2019-03-01T03:57:02.730Z,92.65
2019-03-01T03:58:02.778Z,92.18
2019-03-01T03:59:02.815Z,91.89
2019-03-01T04:00:02.905Z,91.99
2019-03-01T04:01:02.908Z,91.51
2019-03-01T04:02:02.958Z,91.13
2019-03-01T04:03:03.009Z,91.03
2019-03-01T04:04:03.053Z,90.75
2019-03-01T04:05:03.113Z,90.46
2019-03-01T04:06:03.143Z,90.75
2019-03-01T04:07:03.182Z,91.22
2019-03-01T04:08:03.242Z,89.98
2019-03-01T04:09:03.276Z,89.61
2019-03-01T04:10:03.347Z,90.56
2019-03-01T04:11:03.378Z,90.22
2019-03-01T04:12:03.420Z,89.46
2019-03-01T04:13:03.471Z,89.79
2019-03-01T04:14:03.652Z,90.17
2019-03-01T04:15:03.583Z,90.65
2019-03-01T04:16:03.600Z,91.03
2019-03-01T04:17:03.661Z,90.27
2019-03-01T04:18:03.705Z,90.36
2019-03-01T04:19:03.741Z,89.61
2019-03-01T04:20:03.811Z,89.79
2019-03-01T04:21:03.926Z,90.27
2019-03-01T04:22:03.875Z,89.89
2019-03-01T04:23:03.928Z,89.98
2019-03-01T04:24:03.966Z,91.13
2019-03-01T04:25:04.046Z,90.46
2019-03-01T04:26:04.063Z,89.89
2019-03-01T04:27:04.120Z,90.36
2019-03-01T04:28:04.246Z,90.08
2019-03-01T04:29:04.209Z,91.13
2019-03-01T04:30:04.273Z,90.75
2019-03-01T04:31:04.316Z,90.17
2019-03-01T04:32:04.379Z,90.75
2019-03-01T04:33:04.384Z,90.27
2019-03-01T04:34:05.982Z,90.46
2019-03-01T04:35:04.484Z,90.36
2019-03-01T04:36:04.551Z,90.27
2019-03-01T04:37:04.570Z,90.27
2019-03-01T04:38:04.614Z,89.51
2019-03-01T04:39:04.659Z,89.79
2019-03-01T04:40:06.687Z,89.65
2019-03-01T04:41:04.776Z,89.70
2019-03-01T04:42:04.798Z,88.60
2019-03-01T04:43:04.847Z,90.03
2019-03-01T04:44:04.909Z,90.36
2019-03-01T04:45:04.939Z,88.93
2019-03-01T04:46:05.010Z,88.41
2019-03-01T04:47:05.040Z,88.60
2019-03-01T04:48:05.080Z,88.31
2019-03-01T04:49:05.124Z,88.60
2019-03-01T04:50:05.174Z,89.17
2019-03-01T04:51:05.247Z,89.17
2019-03-01T04:52:05.259Z,88.22
2019-03-01T04:53:05.322Z,88.51
2019-03-01T04:54:05.356Z,88.41
2019-03-01T04:55:05.399Z,88.60
2019-03-01T04:56:05.470Z,88.31
2019-03-01T04:57:05.492Z,88.60
2019-03-01T04:58:05.547Z,88.22
2019-03-01T04:59:05.583Z,88.60
2019-03-01T05:00:05.630Z,88.79
2019-03-01T05:01:05.700Z,88.51
2019-03-01T05:02:05.742Z,88.70
2019-03-01T05:03:05.768Z,89.26
2019-03-01T05:04:05.813Z,89.07
2019-03-01T05:05:05.862Z,88.60
2019-03-01T05:06:05.905Z,88.51
2019-03-01T05:07:05.972Z,88.89
2019-03-01T05:08:05.996Z,88.70
2019-03-01T05:09:06.045Z,89.61
2019-03-01T05:10:06.095Z,88.12
2019-03-01T05:11:06.137Z,88.12
2019-03-01T05:12:06.574Z,88.03
2019-03-01T05:13:06.242Z,88.22
2019-03-01T05:14:06.286Z,88.79
2019-03-01T05:15:06.321Z,90.03
2019-03-01T05:16:06.498Z,90.84
2019-03-01T05:17:06.412Z,91.89
2019-03-01T05:18:06.500Z,92.46
2019-03-01T05:19:06.507Z,91.99
2019-03-01T05:20:06.553Z,91.51
2019-03-01T05:21:06.601Z,91.89
2019-03-01T05:22:06.648Z,92.74
2019-03-01T05:23:07.048Z,92.94
2019-03-01T05:24:06.737Z,92.55
2019-03-01T05:25:06.798Z,93.03
2019-03-01T05:26:06.847Z,92.74
2019-03-01T05:27:06.872Z,93.13
2019-03-01T05:28:06.938Z,93.70
2019-03-01T05:29:06.965Z,93.79
2019-03-01T05:30:07.026Z,94.08
2019-03-01T05:31:07.057Z,95.12
2019-03-01T05:32:07.106Z,95.12
2019-03-01T05:33:07.553Z,95.22
2019-03-01T05:34:07.197Z,95.94
2019-03-01T05:35:07.250Z,95.46
2019-03-01T05:36:07.286Z,94.93
2019-03-01T05:37:07.341Z,94.74
2019-03-01T05:38:07.417Z,95.36
2019-03-01T05:39:07.549Z,96.03
2019-03-01T05:40:07.479Z,96.08
2019-03-01T05:41:07.518Z,96.03
2019-03-01T05:42:07.564Z,95.94
2019-03-01T05:43:07.633Z,95.94
2019-03-01T05:44:07.653Z,96.22
2019-03-01T05:45:07.701Z,95.84
2019-03-01T05:46:07.863Z,96.03
2019-03-01T05:47:07.794Z,96.31
2019-03-01T05:48:07.865Z,96.51
2019-03-01T05:49:07.895Z,96.51
2019-03-01T05:50:07.931Z,96.60
2019-03-01T05:51:07.975Z,97.27
2019-03-01T05:52:08.027Z,97.46
2019-03-01T05:53:08.199Z,97.36
2019-03-01T05:54:08.154Z,97.36
2019-03-01T05:55:08.165Z,97.17
2019-03-01T05:56:08.203Z,97.27
2019-03-01T05:57:08.260Z,97.36
2019-03-01T05:58:16.291Z,97.65
2019-03-01T05:59:08.361Z,97.55
2019-03-01T06:00:08.392Z,97.46
2019-03-01T06:01:08.431Z,97.27
2019-03-01T06:02:08.494Z,97.17
2019-03-01T06:03:08.525Z,97.08
2019-03-01T06:04:08.590Z,97.27
2019-03-01T06:05:08.617Z,97.36
2019-03-01T06:06:08.677Z,96.51
2019-03-01T06:07:08.714Z,96.60
2019-03-01T06:08:08.755Z,96.03
2019-03-01T06:09:08.847Z,96.31
2019-03-01T06:10:08.846Z,95.79
2019-03-01T06:11:08.894Z,95.89
2019-03-01T06:12:08.939Z,95.98
2019-03-01T06:13:08.982Z,95.65
2019-03-01T06:14:09.067Z,95.60
2019-03-01T06:15:09.106Z,96.41
2019-03-01T06:16:09.124Z,96.60
2019-03-01T06:17:09.165Z,95.98
2019-03-01T06:18:09.220Z,96.31
2019-03-01T06:19:09.258Z,96.60
2019-03-01T06:20:09.346Z,96.70
2019-03-01T06:21:09.353Z,96.12
2019-03-01T06:22:09.400Z,96.12
2019-03-01T06:23:09.458Z,96.12
2019-03-01T06:24:09.487Z,96.89
2019-03-01T06:25:09.566Z,96.31
2019-03-01T06:26:09.582Z,96.79
2019-03-01T06:27:09.627Z,96.79
2019-03-01T06:28:09.679Z,96.89
2019-03-01T06:29:09.717Z,97.17
2019-03-01T06:30:09.801Z,96.89
2019-03-01T06:31:09.808Z,96.03
2019-03-01T06:32:09.959Z,96.12
2019-03-01T06:33:09.909Z,96.12
2019-03-01T06:34:09.950Z,95.08
2019-03-01T06:35:10.023Z,95.17
2019-03-01T06:36:10.072Z,94.46
2019-03-01T06:37:10.091Z,95.12
2019-03-01T06:38:10.149Z,95.84
2019-03-01T06:39:10.230Z,94.79
2019-03-01T06:40:10.226Z,94.60
2019-03-01T06:41:10.294Z,95.98
2019-03-01T06:42:10.333Z,94.46
2019-03-01T06:43:10.362Z,94.46
2019-03-01T06:44:10.411Z,93.60
2019-03-01T06:45:10.480Z,93.32
2019-03-01T06:46:10.519Z,93.79
2019-03-01T06:47:10.544Z,96.08
2019-03-01T06:48:10.600Z,96.17
2019-03-01T06:49:10.642Z,95.98
2019-03-01T06:50:10.692Z,95.98
2019-03-01T06:51:10.749Z,96.84
2019-03-01T06:52:10.771Z,97.22
2019-03-01T06:53:10.818Z,98.65
2019-03-01T06:54:10.879Z,98.88
2019-03-01T06:55:10.951Z,97.22
2019-03-01T06:56:10.970Z,95.51
2019-03-01T06:57:11.019Z,95.70
2019-03-01T06:58:11.058Z,94.65
2019-03-01T06:59:11.100Z,94.84
2019-03-01T07:00:11.139Z,95.32
2019-03-01T07:01:11.188Z,94.93
2019-03-01T07:02:11.251Z,94.65
2019-03-01T07:03:11.293Z,94.65
2019-03-01T07:04:11.325Z,92.94
2019-03-01T07:05:11.367Z,93.03
2019-03-01T07:06:11.423Z,95.12
2019-03-01T07:07:11.458Z,96.17
2019-03-01T07:08:11.528Z,95.60
2019-03-01T07:09:11.550Z,98.55
2019-03-01T07:10:11.600Z,97.13
2019-03-01T07:11:11.642Z,99.32
2019-03-01T07:12:11.687Z,99.99
2019-03-01T07:13:11.817Z,99.99
2019-03-01T07:14:11.779Z,99.99
2019-03-01T07:15:11.832Z,99.99
2019-03-01T07:16:11.871Z,99.99
2019-03-01T07:17:11.918Z,99.99
2019-03-01T07:18:11.980Z,99.99
2019-03-01T07:19:12.012Z,99.99
2019-03-01T07:20:12.730Z,99.99
2019-03-01T07:21:12.103Z,99.99
2019-03-01T07:22:12.150Z,99.99
2019-03-01T07:23:12.220Z,99.99
2019-03-01T07:24:12.356Z,99.99
2019-03-01T07:25:12.285Z,99.99
2019-03-01T07:26:12.343Z,99.99
2019-03-01T07:27:12.529Z,99.99
2019-03-01T07:28:12.438Z,99.99
2019-03-01T07:29:12.478Z,99.99
2019-03-01T07:30:12.515Z,99.99
2019-03-01T07:31:12.558Z,99.99
2019-03-01T07:32:12.603Z,99.99
2019-03-01T07:33:12.674Z,99.99
2019-03-01T07:34:12.719Z,99.99
2019-03-01T07:35:12.742Z,99.99
2019-03-01T07:36:12.793Z,99.99
2019-03-01T07:37:12.847Z,99.99
2019-03-01T07:38:12.922Z,99.99
2019-03-01T07:39:12.943Z,99.99
2019-03-01T07:40:12.972Z,99.99
2019-03-01T07:41:13.014Z,99.99
2019-03-01T07:42:13.069Z,99.99
2019-03-01T07:43:13.131Z,99.99
2019-03-01T07:44:13.148Z,99.99
2019-03-01T07:45:13.204Z,99.99
2019-03-01T07:46:13.240Z,99.99
2019-03-01T07:47:13.290Z,99.99
2019-03-01T07:48:13.355Z,99.99
2019-03-01T07:49:13.395Z,99.99
2019-03-01T07:50:13.421Z,99.99
2019-03-01T07:51:13.478Z,99.99
2019-03-01T07:52:13.593Z,99.99
2019-03-01T07:53:13.556Z,99.99
2019-03-01T07:54:16.891Z,99.99
2019-03-01T07:55:13.649Z,99.99
2019-03-01T07:56:13.713Z,99.99
2019-03-01T07:57:14.788Z,99.99
2019-03-01T07:58:13.796Z,99.99
2019-03-01T07:59:13.876Z,99.99
2019-03-01T08:00:14.179Z,99.99
2019-03-01T08:01:13.937Z,99.99
2019-03-01T08:02:13.973Z,99.99
2019-03-01T08:03:15.135Z,99.99
2019-03-01T08:04:14.615Z,99.99
2019-03-01T08:05:16.209Z,99.99
2019-03-01T08:06:14.330Z,99.99
2019-03-01T08:07:14.198Z,99.99
2019-03-01T08:08:14.255Z,99.99
2019-03-01T08:09:14.318Z,99.99
2019-03-01T08:10:20.697Z,99.99
2019-03-01T08:11:14.373Z,99.99
2019-03-01T08:12:14.438Z,99.99
2019-03-01T08:13:14.813Z,99.99
2019-03-01T08:14:14.532Z,99.99
2019-03-01T08:15:14.580Z,99.99
2019-03-01T08:16:16.617Z,99.99
2019-03-01T08:17:14.652Z,99.99
2019-03-01T08:18:14.703Z,99.99
2019-03-01T08:19:17.007Z,99.99
2019-03-01T08:20:14.927Z,99.99
2019-03-01T08:21:14.993Z,99.99
2019-03-01T08:22:14.893Z,99.99
2019-03-01T08:23:14.933Z,99.99
2019-03-01T08:24:14.965Z,99.99
2019-03-01T08:25:15.049Z,99.99
2019-03-01T08:26:15.058Z,99.99
2019-03-01T08:27:15.098Z,99.99
2019-03-01T08:28:18.369Z,99.99
2019-03-01T08:29:15.199Z,99.99
2019-03-01T08:30:15.265Z,99.99
2019-03-01T08:31:17.514Z,99.99
2019-03-01T08:32:15.343Z,99.99
2019-03-01T08:33:15.387Z,99.99
2019-03-01T08:34:17.736Z,99.99
2019-03-01T08:35:15.480Z,99.99
2019-03-01T08:36:15.535Z,99.99
2019-03-01T08:37:17.558Z,99.99
2019-03-01T08:38:15.601Z,99.99
2019-03-01T08:39:15.644Z,99.99
2019-03-01T08:40:15.739Z,99.99
2019-03-01T08:41:15.765Z,99.99
2019-03-01T08:42:15.819Z,99.99
2019-03-01T08:43:15.826Z,99.99
2019-03-01T08:44:15.881Z,99.99
2019-03-01T08:45:15.910Z,99.99
2019-03-01T08:46:15.986Z,99.99
2019-03-01T08:47:20.257Z,99.99
2019-03-01T08:48:16.046Z,99.99
2019-03-01T08:49:16.101Z,99.99
2019-03-01T08:50:16.154Z,99.99
2019-03-01T08:51:16.237Z,99.99
2019-03-01T08:52:16.228Z,99.99
2019-03-01T08:53:16.277Z,99.99
2019-03-01T08:54:16.318Z,99.99
2019-03-01T08:55:16.371Z,99.99
2019-03-01T08:56:16.426Z,99.99
2019-03-01T08:57:16.454Z,99.99
2019-03-01T08:58:16.578Z,99.99
2019-03-01T08:59:17.495Z,99.99
2019-03-01T09:00:16.582Z,99.99
2019-03-01T09:01:16.651Z,99.99
2019-03-01T09:02:16.726Z,99.99
2019-03-01T09:03:22.358Z,99.99
2019-03-01T09:04:17.475Z,99.99
2019-03-01T09:05:16.849Z,99.99
2019-03-01T09:06:16.926Z,99.99
2019-03-01T09:07:16.903Z,99.99
2019-03-01T09:08:16.939Z,99.99
2019-03-01T09:09:17.715Z,99.99
2019-03-01T09:10:17.028Z,99.99
2019-03-01T09:11:17.105Z,99.99
2019-03-01T09:12:17.179Z,99.99
2019-03-01T09:13:17.178Z,99.99
2019-03-01T09:14:17.216Z,99.99
2019-03-01T09:15:17.248Z,99.99
2019-03-01T09:16:17.293Z,99.99
2019-03-01T09:17:17.368Z,99.99
2019-03-01T09:18:17.390Z,99.99
2019-03-01T09:19:17.425Z,99.99
2019-03-01T09:20:17.487Z,99.99
2019-03-01T09:21:17.520Z,99.99
2019-03-01T09:22:17.610Z,99.99
2019-03-01T09:23:24.196Z,99.99
2019-03-01T09:24:17.657Z,99.99
2019-03-01T09:25:17.694Z,99.99
2019-03-01T09:26:19.936Z,99.99
2019-03-01T09:27:17.818Z,99.99
2019-03-01T09:28:17.838Z,99.99
2019-03-01T09:29:18.748Z,99.99
2019-03-01T09:30:17.914Z,99.99
2019-03-01T09:31:17.960Z,99.99
2019-03-01T09:32:18.029Z,99.99
2019-03-01T09:33:21.164Z,99.99
2019-03-01T09:34:18.097Z,99.99
2019-03-01T09:35:18.195Z,99.99
2019-03-01T09:36:21.284Z,99.99
2019-03-01T09:37:18.248Z,99.99
2019-03-01T09:38:18.296Z,99.99
2019-03-01T09:39:19.240Z,99.99
2019-03-01T09:40:18.381Z,99.99
2019-03-01T09:41:18.402Z,99.99
2019-03-01T09:42:18.577Z,99.99
2019-03-01T09:43:18.550Z,99.99
2019-03-01T09:44:18.533Z,99.99
2019-03-01T09:45:19.389Z,99.99
2019-03-01T09:46:20.789Z,99.99
2019-03-01T09:47:18.673Z,99.99
2019-03-01T09:48:18.784Z,99.99
2019-03-01T09:49:21.347Z,99.99
2019-03-01T09:50:18.803Z,99.99
2019-03-01T09:51:18.853Z,99.99
2019-03-01T09:52:20.385Z,99.99
2019-03-01T09:53:18.986Z,99.99
2019-03-01T09:54:18.981Z,99.99
2019-03-01T09:55:19.024Z,99.99
2019-03-01T09:56:19.094Z,99.99
2019-03-01T09:57:19.115Z,99.99
2019-03-01T09:58:19.194Z,99.99
2019-03-01T09:59:19.208Z,99.99
2019-03-01T10:00:19.251Z,99.99
2019-03-01T10:01:19.306Z,99.99
2019-03-01T10:02:19.342Z,99.99
2019-03-01T10:03:19.443Z,99.99
2019-03-01T10:04:19.462Z,99.99
2019-03-01T10:05:19.476Z,99.99
2019-03-01T10:06:19.523Z,99.99
2019-03-01T10:07:19.572Z,99.99
2019-03-01T10:08:19.633Z,99.99
2019-03-01T10:09:19.668Z,99.99
2019-03-01T10:10:19.697Z,99.99
2019-03-01T10:11:19.747Z,99.99
2019-03-01T10:12:19.881Z,99.99
2019-03-01T10:13:19.834Z,99.99
2019-03-01T10:14:20.480Z,99.99
2019-03-01T10:15:19.922Z,99.99
2019-03-01T10:16:19.973Z,99.99
2019-03-01T10:17:20.007Z,99.99
2019-03-01T10:18:20.057Z,99.99
2019-03-01T10:19:20.128Z,99.99
2019-03-01T10:20:20.152Z,99.99
2019-03-01T10:21:20.208Z,99.99
2019-03-01T10:22:20.229Z,99.99
2019-03-01T10:23:20.275Z,99.99
2019-03-01T10:24:20.354Z,99.99
2019-03-01T10:25:20.376Z,99.99
2019-03-01T10:26:20.420Z,99.99
2019-03-01T10:27:20.455Z,99.99
2019-03-01T10:28:20.521Z,99.99
2019-03-01T10:29:20.574Z,99.99
2019-03-01T10:30:20.617Z,99.99
2019-03-01T10:31:20.639Z,99.99
2019-03-01T10:32:20.678Z,99.99
2019-03-01T10:33:20.735Z,99.99
2019-03-01T10:34:20.778Z,99.99
2019-03-01T10:35:20.836Z,99.99
2019-03-01T10:36:20.871Z,99.99
2019-03-01T10:37:20.916Z,99.99
2019-03-01T10:38:20.956Z,99.99
2019-03-01T10:39:21.017Z,99.99
2019-03-01T10:40:21.082Z,99.99
2019-03-01T10:41:21.090Z,99.99
2019-03-01T10:42:21.157Z,99.99
2019-03-01T10:43:21.191Z,99.99
2019-03-01T10:44:21.233Z,99.99
2019-03-01T10:45:21.315Z,99.99
2019-03-01T10:46:21.318Z,99.99
2019-03-01T10:47:21.366Z,99.99
2019-03-01T10:48:21.414Z,99.99
2019-03-01T10:49:21.527Z,99.99
2019-03-01T10:50:21.540Z,99.99
2019-03-01T10:51:21.566Z,99.99
2019-03-01T10:52:21.598Z,99.99
2019-03-01T10:53:21.644Z,99.99
2019-03-01T10:54:21.696Z,99.99
2019-03-01T10:55:21.755Z,99.99
2019-03-01T10:56:21.803Z,99.99
2019-03-01T10:57:21.822Z,99.99
2019-03-01T10:58:21.943Z,99.99
2019-03-01T10:59:21.932Z,99.99
2019-03-01T11:00:22.006Z,99.99
2019-03-01T11:01:22.020Z,99.99
2019-03-01T11:02:22.056Z,99.99
2019-03-01T11:03:22.095Z,99.99
2019-03-01T11:04:22.142Z,99.99
2019-03-01T11:05:22.208Z,99.99
2019-03-01T11:06:22.258Z,99.99
2019-03-01T11:07:22.276Z,99.99
2019-03-01T11:08:22.326Z,99.99
2019-03-01T11:09:22.372Z,99.99
2019-03-01T11:10:22.419Z,99.99
2019-03-01T11:11:22.480Z,99.99
2019-03-01T11:12:22.508Z,99.99
2019-03-01T11:13:22.549Z,99.99
2019-03-01T11:14:22.726Z,99.99
2019-03-01T11:15:22.635Z,99.99
2019-03-01T11:16:22.729Z,99.99
2019-03-01T11:17:22.729Z,99.99
2019-03-01T11:18:22.777Z,99.99
2019-03-01T11:19:22.822Z,99.99
2019-03-01T11:20:22.863Z,99.99
2019-03-01T11:21:23.066Z,99.99
2019-03-01T11:22:22.956Z,99.99
2019-03-01T11:23:23.010Z,99.99
2019-03-01T11:24:23.045Z,99.99
2019-03-01T11:25:23.097Z,99.99
2019-03-01T11:26:23.160Z,99.99
2019-03-01T11:27:23.216Z,99.99
2019-03-01T11:28:23.352Z,99.99
2019-03-01T11:29:23.285Z,99.99
2019-03-01T11:30:23.318Z,99.99
2019-03-01T11:31:23.363Z,99.99
2019-03-01T11:32:23.424Z,99.99
2019-03-01T11:33:23.467Z,99.99
2019-03-01T11:34:23.499Z,99.99
2019-03-01T11:35:23.575Z,99.99
2019-03-01T11:36:23.580Z,99.99
2019-03-01T11:37:23.664Z,99.99
2019-03-01T11:38:23.683Z,99.99
2019-03-01T11:39:23.730Z,99.99
2019-03-01T11:40:23.763Z,99.99
2019-03-01T11:41:23.809Z,99.99
2019-03-01T11:42:23.975Z,99.99
2019-03-01T11:43:23.896Z,99.99
2019-03-01T11:44:23.948Z,99.99
2019-03-01T11:45:24.002Z,99.99
2019-03-01T11:46:24.043Z,99.99
2019-03-01T11:47:24.097Z,99.99
2019-03-01T11:48:24.156Z,99.99
2019-03-01T11:49:24.178Z,99.99
2019-03-01T11:50:24.214Z,99.99
2019-03-01T11:51:24.260Z,99.99
2019-03-01T11:52:24.313Z,99.99
2019-03-01T11:53:24.375Z,99.99
2019-03-01T11:54:24.396Z,99.99
2019-03-01T11:55:24.447Z,99.99
2019-03-01T11:56:24.528Z,99.99
2019-03-01T11:57:24.531Z,99.99
2019-03-01T11:58:24.599Z,99.99
2019-03-01T11:59:24.624Z,99.99
2019-03-01T12:00:24.675Z,99.99
2019-03-01T12:01:24.718Z,99.99
2019-03-01T12:02:24.760Z,99.99
2019-03-01T12:03:24.853Z,99.99
2019-03-01T12:04:24.868Z,99.99
2019-03-01T12:05:24.899Z,99.99
2019-03-01T12:06:24.937Z,99.99
2019-03-01T12:07:24.982Z,99.99
2019-03-01T12:08:25.055Z,99.99
2019-03-01T12:09:25.085Z,99.99
2019-03-01T12:10:25.120Z,99.99
2019-03-01T12:11:25.210Z,99.99
2019-03-01T12:12:25.241Z,99.99
2019-03-01T12:13:25.283Z,99.99
2019-03-01T12:14:25.304Z,99.99
2019-03-01T12:15:25.354Z,99.99
2019-03-01T12:16:25.395Z,99.99
2019-03-01T12:17:25.442Z,99.99
2019-03-01T12:18:25.509Z,99.99
2019-03-01T12:19:25.532Z,99.99
2019-03-01T12:20:25.567Z,99.99
2019-03-01T12:21:25.625Z,99.99
2019-03-01T12:22:25.659Z,99.99
2019-03-01T12:23:25.739Z,99.99
2019-03-01T12:24:25.758Z,99.99
2019-03-01T12:25:25.810Z,99.99
2019-03-01T12:26:25.874Z,99.99
2019-03-01T12:27:25.891Z,99.99
2019-03-01T12:28:25.949Z,99.99
2019-03-01T12:29:25.978Z,99.99
2019-03-01T12:30:26.032Z,99.99
2019-03-01T12:31:26.077Z,99.99
2019-03-01T12:32:26.132Z,99.99
2019-03-01T12:33:26.202Z,99.99
2019-03-01T12:34:26.221Z,99.99
2019-03-01T12:35:26.244Z,99.99
2019-03-01T12:36:26.300Z,99.99
2019-03-01T12:37:26.336Z,99.99
2019-03-01T12:38:26.385Z,99.99
2019-03-01T12:39:26.468Z,99.99
2019-03-01T12:40:26.473Z,99.99
2019-03-01T12:41:26.515Z,99.99
2019-03-01T12:42:26.565Z,99.99
2019-03-01T12:43:26.604Z,99.99
2019-03-01T12:44:26.675Z,99.99
2019-03-01T12:45:26.700Z,99.99
2019-03-01T12:46:26.755Z,99.99
2019-03-01T12:47:26.792Z,99.99
2019-03-01T12:48:26.843Z,99.99
2019-03-01T12:49:26.896Z,99.99
2019-03-01T12:50:26.949Z,99.99
2019-03-01T12:51:26.963Z,99.99
2019-03-01T12:52:27.014Z,99.99
2019-03-01T12:53:27.062Z,99.99